sensor_id;sensor_type;location;lat;lon;timestamp;P1;durP1;ratioP1;P2;durP2;ratioP2
20101;SDS011;10210;52.284;9.892;2024-03-08T00:00:07;25.60;;;12.90;;
20101;SDS011;10210;52.284;9.892;2024-03-08T00:02:37;25.23;;;12.83;;
20101;SDS011;10210;52.284;9.892;2024-03-08T00:05:08;27.03;;;13.20;;
20101;SDS011;10210;52.284;9.892;2024-03-08T00:07:35;25.73;;;13.23;;
20101;SDS011;10210;52.284;9.892;2024-03-08T00:10:08;24.77;;;12.60;;
20101;SDS011;10210;52.284;9.892;2024-03-08T00:12:36;24.00;;;12.90;;
20101;SDS011;10210;52.284;9.892;2024-03-08T00:15:09;26.33;;;13.07;;
20101;SDS011;10210;52.284;9.892;2024-03-08T00:17:39;26.90;;;14.37;;
20101;SDS011;10210;52.284;9.892;2024-03-08T00:20:08;28.57;;;14.70;;
20101;SDS011;10210;52.284;9.892;2024-03-08T00:22:35;28.70;;;15.23;;
20101;SDS011;10210;52.284;9.892;2024-03-08T00:25:04;28.10;;;14.70;;
20101;SDS011;10210;52.284;9.892;2024-03-08T00:27:34;28.00;;;15.90;;
20101;SDS011;10210;52.284;9.892;2024-03-08T00:30:01;29.93;;;15.63;;
20101;SDS011;10210;52.284;9.892;2024-03-08T00:32:27;30.87;;;16.37;;
20101;SDS011;10210;52.284;9.892;2024-03-08T00:34:53;27.30;;;14.47;;
20101;SDS011;10210;52.284;9.892;2024-03-08T00:37:20;26.57;;;14.77;;
20101;SDS011;10210;52.284;9.892;2024-03-08T00:39:49;29.90;;;15.00;;
20101;SDS011;10210;52.284;9.892;2024-03-08T00:42:17;28.27;;;15.53;;
20101;SDS011;10210;52.284;9.892;2024-03-08T00:44:44;27.80;;;15.27;;
20101;SDS011;10210;52.284;9.892;2024-03-08T00:47:10;29.60;;;16.30;;
20101;SDS011;10210;52.284;9.892;2024-03-08T00:49:37;27.73;;;14.37;;
20101;SDS011;10210;52.284;9.892;2024-03-08T00:52:06;28.93;;;15.40;;
20101;SDS011;10210;52.284;9.892;2024-03-08T00:54:32;29.20;;;15.37;;
20101;SDS011;10210;52.284;9.892;2024-03-08T00:56:58;29.03;;;15.10;;
20101;SDS011;10210;52.284;9.892;2024-03-08T00:59:27;30.67;;;15.73;;
20101;SDS011;10210;52.284;9.892;2024-03-08T01:01:59;33.03;;;16.40;;
20101;SDS011;10210;52.284;9.892;2024-03-08T01:04:26;28.57;;;15.73;;
20101;SDS011;10210;52.284;9.892;2024-03-08T01:06:55;30.90;;;16.10;;
20101;SDS011;10210;52.284;9.892;2024-03-08T01:09:25;30.20;;;15.23;;
20101;SDS011;10210;52.284;9.892;2024-03-08T01:11:52;34.37;;;16.77;;
20101;SDS011;10210;52.284;9.892;2024-03-08T01:14:21;31.13;;;16.23;;
20101;SDS011;10210;52.284;9.892;2024-03-08T01:16:48;30.77;;;16.43;;
20101;SDS011;10210;52.284;9.892;2024-03-08T01:19:14;32.87;;;16.20;;
20101;SDS011;10210;52.284;9.892;2024-03-08T01:21:41;29.37;;;15.53;;
20101;SDS011;10210;52.284;9.892;2024-03-08T01:24:07;29.20;;;15.07;;
20101;SDS011;10210;52.284;9.892;2024-03-08T01:26:33;28.77;;;15.93;;
20101;SDS011;10210;52.284;9.892;2024-03-08T01:29:01;30.20;;;14.60;;
20101;SDS011;10210;52.284;9.892;2024-03-08T01:31:28;31.43;;;15.37;;
20101;SDS011;10210;52.284;9.892;2024-03-08T01:33:57;28.33;;;14.20;;
20101;SDS011;10210;52.284;9.892;2024-03-08T01:36:23;31.10;;;15.63;;
20101;SDS011;10210;52.284;9.892;2024-03-08T01:38:49;30.93;;;15.43;;
20101;SDS011;10210;52.284;9.892;2024-03-08T01:41:16;33.23;;;16.60;;
20101;SDS011;10210;52.284;9.892;2024-03-08T01:43:43;29.93;;;15.70;;
20101;SDS011;10210;52.284;9.892;2024-03-08T01:46:10;31.40;;;16.37;;
20101;SDS011;10210;52.284;9.892;2024-03-08T01:48:40;31.50;;;16.83;;
20101;SDS011;10210;52.284;9.892;2024-03-08T01:51:06;31.13;;;16.17;;
20101;SDS011;10210;52.284;9.892;2024-03-08T01:53:32;31.97;;;15.73;;
20101;SDS011;10210;52.284;9.892;2024-03-08T01:56:00;32.63;;;17.53;;
20101;SDS011;10210;52.284;9.892;2024-03-08T01:58:28;33.33;;;17.57;;
20101;SDS011;10210;52.284;9.892;2024-03-08T02:00:58;31.93;;;17.00;;
20101;SDS011;10210;52.284;9.892;2024-03-08T02:03:25;32.17;;;17.47;;
20101;SDS011;10210;52.284;9.892;2024-03-08T02:05:51;33.80;;;16.43;;
20101;SDS011;10210;52.284;9.892;2024-03-08T02:08:17;30.37;;;16.23;;
20101;SDS011;10210;52.284;9.892;2024-03-08T02:10:44;34.00;;;17.70;;
20101;SDS011;10210;52.284;9.892;2024-03-08T02:13:10;31.00;;;16.27;;
20101;SDS011;10210;52.284;9.892;2024-03-08T02:15:55;30.90;;;16.50;;
20101;SDS011;10210;52.284;9.892;2024-03-08T02:18:26;33.43;;;17.83;;
20101;SDS011;10210;52.284;9.892;2024-03-08T02:21:00;31.00;;;15.97;;
20101;SDS011;10210;52.284;9.892;2024-03-08T02:23:28;30.90;;;15.33;;
20101;SDS011;10210;52.284;9.892;2024-03-08T02:25:56;29.20;;;14.93;;
20101;SDS011;10210;52.284;9.892;2024-03-08T02:28:23;32.03;;;16.23;;
20101;SDS011;10210;52.284;9.892;2024-03-08T02:30:53;27.67;;;14.63;;
20101;SDS011;10210;52.284;9.892;2024-03-08T02:33:20;29.20;;;14.60;;
20101;SDS011;10210;52.284;9.892;2024-03-08T02:35:48;29.93;;;14.17;;
20101;SDS011;10210;52.284;9.892;2024-03-08T02:38:17;28.17;;;13.93;;
20101;SDS011;10210;52.284;9.892;2024-03-08T02:40:49;26.77;;;13.90;;
20101;SDS011;10210;52.284;9.892;2024-03-08T02:43:17;29.00;;;13.27;;
20101;SDS011;10210;52.284;9.892;2024-03-08T02:45:44;26.47;;;13.30;;
20101;SDS011;10210;52.284;9.892;2024-03-08T02:48:11;28.23;;;14.27;;
20101;SDS011;10210;52.284;9.892;2024-03-08T02:50:38;26.87;;;13.50;;
20101;SDS011;10210;52.284;9.892;2024-03-08T02:53:09;27.67;;;13.77;;
20101;SDS011;10210;52.284;9.892;2024-03-08T02:55:40;28.53;;;15.27;;
20101;SDS011;10210;52.284;9.892;2024-03-08T02:58:07;27.70;;;13.90;;
20101;SDS011;10210;52.284;9.892;2024-03-08T03:00:36;29.13;;;14.87;;
20101;SDS011;10210;52.284;9.892;2024-03-08T03:03:06;28.03;;;14.53;;
20101;SDS011;10210;52.284;9.892;2024-03-08T03:05:32;28.47;;;15.10;;
20101;SDS011;10210;52.284;9.892;2024-03-08T03:07:59;29.27;;;15.60;;
20101;SDS011;10210;52.284;9.892;2024-03-08T03:10:25;27.47;;;14.27;;
20101;SDS011;10210;52.284;9.892;2024-03-08T03:12:51;26.60;;;14.00;;
20101;SDS011;10210;52.284;9.892;2024-03-08T03:15:17;31.10;;;14.73;;
20101;SDS011;10210;52.284;9.892;2024-03-08T03:17:47;29.47;;;14.53;;
20101;SDS011;10210;52.284;9.892;2024-03-08T03:20:17;28.83;;;14.20;;
20101;SDS011;10210;52.284;9.892;2024-03-08T03:22:57;27.07;;;13.27;;
20101;SDS011;10210;52.284;9.892;2024-03-08T03:25:26;28.87;;;13.87;;
20101;SDS011;10210;52.284;9.892;2024-03-08T03:27:57;28.43;;;13.90;;
20101;SDS011;10210;52.284;9.892;2024-03-08T03:30:23;26.83;;;13.90;;
20101;SDS011;10210;52.284;9.892;2024-03-08T03:32:52;29.20;;;14.93;;
20101;SDS011;10210;52.284;9.892;2024-03-08T03:35:19;27.13;;;14.40;;
20101;SDS011;10210;52.284;9.892;2024-03-08T03:37:46;27.67;;;14.10;;
20101;SDS011;10210;52.284;9.892;2024-03-08T03:40:34;30.40;;;15.40;;
20101;SDS011;10210;52.284;9.892;2024-03-08T03:43:04;27.17;;;14.43;;
20101;SDS011;10210;52.284;9.892;2024-03-08T03:45:30;30.30;;;14.77;;
20101;SDS011;10210;52.284;9.892;2024-03-08T03:47:59;30.30;;;15.17;;
20101;SDS011;10210;52.284;9.892;2024-03-08T03:50:31;29.87;;;15.30;;
20101;SDS011;10210;52.284;9.892;2024-03-08T03:52:59;31.80;;;16.33;;
20101;SDS011;10210;52.284;9.892;2024-03-08T03:55:25;30.27;;;16.17;;
20101;SDS011;10210;52.284;9.892;2024-03-08T03:57:51;31.90;;;15.73;;
20101;SDS011;10210;52.284;9.892;2024-03-08T04:00:17;32.70;;;17.67;;
20101;SDS011;10210;52.284;9.892;2024-03-08T04:02:44;31.07;;;15.33;;
20101;SDS011;10210;52.284;9.892;2024-03-08T04:05:10;31.23;;;15.50;;
20101;SDS011;10210;52.284;9.892;2024-03-08T04:07:37;27.27;;;14.87;;
20101;SDS011;10210;52.284;9.892;2024-03-08T04:10:04;29.40;;;14.67;;
20101;SDS011;10210;52.284;9.892;2024-03-08T04:12:32;32.80;;;15.73;;
20101;SDS011;10210;52.284;9.892;2024-03-08T04:15:01;30.17;;;15.27;;
20101;SDS011;10210;52.284;9.892;2024-03-08T04:17:27;28.17;;;15.37;;
20101;SDS011;10210;52.284;9.892;2024-03-08T04:19:52;29.00;;;15.23;;
20101;SDS011;10210;52.284;9.892;2024-03-08T04:22:18;31.63;;;15.47;;
20101;SDS011;10210;52.284;9.892;2024-03-08T04:24:45;28.37;;;14.73;;
20101;SDS011;10210;52.284;9.892;2024-03-08T04:27:12;27.20;;;13.63;;
20101;SDS011;10210;52.284;9.892;2024-03-08T04:29:39;27.83;;;14.03;;
20101;SDS011;10210;52.284;9.892;2024-03-08T04:32:05;27.23;;;13.70;;
20101;SDS011;10210;52.284;9.892;2024-03-08T04:34:32;29.10;;;14.73;;
20101;SDS011;10210;52.284;9.892;2024-03-08T04:36:59;27.57;;;14.57;;
20101;SDS011;10210;52.284;9.892;2024-03-08T04:39:31;27.70;;;13.93;;
20101;SDS011;10210;52.284;9.892;2024-03-08T04:41:57;30.23;;;14.60;;
20101;SDS011;10210;52.284;9.892;2024-03-08T04:44:35;28.00;;;14.77;;
20101;SDS011;10210;52.284;9.892;2024-03-08T04:47:03;28.97;;;14.43;;
20101;SDS011;10210;52.284;9.892;2024-03-08T04:49:31;27.73;;;13.37;;
20101;SDS011;10210;52.284;9.892;2024-03-08T04:51:59;29.57;;;14.37;;
20101;SDS011;10210;52.284;9.892;2024-03-08T04:54:29;28.27;;;14.40;;
20101;SDS011;10210;52.284;9.892;2024-03-08T04:56:57;31.17;;;15.87;;
20101;SDS011;10210;52.284;9.892;2024-03-08T04:59:22;30.00;;;14.97;;
20101;SDS011;10210;52.284;9.892;2024-03-08T05:01:49;30.40;;;15.90;;
20101;SDS011;10210;52.284;9.892;2024-03-08T05:04:14;32.23;;;16.50;;
20101;SDS011;10210;52.284;9.892;2024-03-08T05:06:41;29.50;;;15.23;;
20101;SDS011;10210;52.284;9.892;2024-03-08T05:09:07;31.27;;;15.80;;
20101;SDS011;10210;52.284;9.892;2024-03-08T05:11:39;30.97;;;16.23;;
20101;SDS011;10210;52.284;9.892;2024-03-08T05:14:06;31.37;;;16.20;;
20101;SDS011;10210;52.284;9.892;2024-03-08T05:16:32;32.03;;;16.13;;
20101;SDS011;10210;52.284;9.892;2024-03-08T05:18:57;32.23;;;16.57;;
20101;SDS011;10210;52.284;9.892;2024-03-08T05:21:23;34.90;;;17.67;;
20101;SDS011;10210;52.284;9.892;2024-03-08T05:23:50;33.43;;;17.53;;
20101;SDS011;10210;52.284;9.892;2024-03-08T05:26:17;34.17;;;18.63;;
20101;SDS011;10210;52.284;9.892;2024-03-08T05:28:42;37.50;;;19.43;;
20101;SDS011;10210;52.284;9.892;2024-03-08T05:31:08;37.17;;;19.33;;
20101;SDS011;10210;52.284;9.892;2024-03-08T05:33:34;38.77;;;20.90;;
20101;SDS011;10210;52.284;9.892;2024-03-08T05:36:00;37.27;;;20.60;;
20101;SDS011;10210;52.284;9.892;2024-03-08T05:38:27;39.73;;;21.40;;
20101;SDS011;10210;52.284;9.892;2024-03-08T05:40:53;37.50;;;19.93;;
20101;SDS011;10210;52.284;9.892;2024-03-08T05:43:19;36.93;;;20.50;;
20101;SDS011;10210;52.284;9.892;2024-03-08T05:45:45;39.43;;;20.20;;
20101;SDS011;10210;52.284;9.892;2024-03-08T05:48:13;40.20;;;22.60;;
20101;SDS011;10210;52.284;9.892;2024-03-08T05:50:39;38.00;;;20.07;;
20101;SDS011;10210;52.284;9.892;2024-03-08T05:53:04;44.57;;;22.10;;
20101;SDS011;10210;52.284;9.892;2024-03-08T05:55:34;38.17;;;22.03;;
20101;SDS011;10210;52.284;9.892;2024-03-08T05:58:01;37.93;;;20.93;;
20101;SDS011;10210;52.284;9.892;2024-03-08T06:00:28;39.33;;;21.70;;
20101;SDS011;10210;52.284;9.892;2024-03-08T06:02:56;41.90;;;22.30;;
20101;SDS011;10210;52.284;9.892;2024-03-08T06:05:23;40.03;;;21.30;;
20101;SDS011;10210;52.284;9.892;2024-03-08T06:07:49;37.23;;;20.83;;
20101;SDS011;10210;52.284;9.892;2024-03-08T06:10:18;41.50;;;21.97;;
20101;SDS011;10210;52.284;9.892;2024-03-08T06:12:44;39.37;;;20.97;;
20101;SDS011;10210;52.284;9.892;2024-03-08T06:15:10;35.63;;;19.87;;
20101;SDS011;10210;52.284;9.892;2024-03-08T06:17:39;35.30;;;20.00;;
20101;SDS011;10210;52.284;9.892;2024-03-08T06:20:08;34.63;;;18.93;;
20101;SDS011;10210;52.284;9.892;2024-03-08T06:22:37;32.80;;;18.37;;
20101;SDS011;10210;52.284;9.892;2024-03-08T06:25:07;35.63;;;20.00;;
20101;SDS011;10210;52.284;9.892;2024-03-08T06:27:38;39.37;;;22.00;;
20101;SDS011;10210;52.284;9.892;2024-03-08T06:30:08;37.67;;;20.00;;
20101;SDS011;10210;52.284;9.892;2024-03-08T06:32:38;39.97;;;21.03;;
20101;SDS011;10210;52.284;9.892;2024-03-08T06:35:04;40.57;;;21.77;;
20101;SDS011;10210;52.284;9.892;2024-03-08T06:37:34;41.67;;;22.63;;
20101;SDS011;10210;52.284;9.892;2024-03-08T06:40:00;37.57;;;20.40;;
20101;SDS011;10210;52.284;9.892;2024-03-08T06:42:27;39.43;;;21.57;;
20101;SDS011;10210;52.284;9.892;2024-03-08T06:45:01;40.27;;;22.40;;
20101;SDS011;10210;52.284;9.892;2024-03-08T06:47:31;41.13;;;22.63;;
20101;SDS011;10210;52.284;9.892;2024-03-08T06:49:58;41.27;;;22.47;;
20101;SDS011;10210;52.284;9.892;2024-03-08T06:52:23;39.50;;;22.13;;
20101;SDS011;10210;52.284;9.892;2024-03-08T06:54:49;39.13;;;22.17;;
20101;SDS011;10210;52.284;9.892;2024-03-08T06:57:18;38.57;;;21.10;;
20101;SDS011;10210;52.284;9.892;2024-03-08T06:59:47;39.37;;;21.40;;
20101;SDS011;10210;52.284;9.892;2024-03-08T07:02:13;41.23;;;22.30;;
20101;SDS011;10210;52.284;9.892;2024-03-08T07:04:39;40.37;;;22.07;;
20101;SDS011;10210;52.284;9.892;2024-03-08T07:07:05;37.53;;;20.63;;
20101;SDS011;10210;52.284;9.892;2024-03-08T07:09:33;40.47;;;22.37;;
20101;SDS011;10210;52.284;9.892;2024-03-08T07:11:58;38.37;;;21.03;;
20101;SDS011;10210;52.284;9.892;2024-03-08T07:14:24;41.70;;;22.27;;
20101;SDS011;10210;52.284;9.892;2024-03-08T07:16:50;39.47;;;22.00;;
20101;SDS011;10210;52.284;9.892;2024-03-08T07:19:16;37.33;;;21.70;;
20101;SDS011;10210;52.284;9.892;2024-03-08T07:21:43;37.77;;;20.93;;
20101;SDS011;10210;52.284;9.892;2024-03-08T07:24:09;38.87;;;20.83;;
20101;SDS011;10210;52.284;9.892;2024-03-08T07:26:43;37.20;;;22.03;;
20101;SDS011;10210;52.284;9.892;2024-03-08T07:29:09;38.73;;;20.70;;
20101;SDS011;10210;52.284;9.892;2024-03-08T07:31:34;38.20;;;20.97;;
20101;SDS011;10210;52.284;9.892;2024-03-08T07:34:15;39.00;;;21.73;;
20101;SDS011;10210;52.284;9.892;2024-03-08T07:36:44;38.87;;;21.03;;
20101;SDS011;10210;52.284;9.892;2024-03-08T07:39:09;40.00;;;21.53;;
20101;SDS011;10210;52.284;9.892;2024-03-08T07:41:38;37.90;;;22.97;;
20101;SDS011;10210;52.284;9.892;2024-03-08T07:44:08;39.73;;;21.83;;
20101;SDS011;10210;52.284;9.892;2024-03-08T07:46:34;38.30;;;21.47;;
20101;SDS011;10210;52.284;9.892;2024-03-08T07:49:00;36.33;;;20.60;;
20101;SDS011;10210;52.284;9.892;2024-03-08T07:51:26;37.63;;;21.63;;
20101;SDS011;10210;52.284;9.892;2024-03-08T07:53:51;39.37;;;22.70;;
20101;SDS011;10210;52.284;9.892;2024-03-08T07:56:17;35.37;;;20.93;;
20101;SDS011;10210;52.284;9.892;2024-03-08T07:58:43;36.93;;;21.30;;
20101;SDS011;10210;52.284;9.892;2024-03-08T08:01:19;37.43;;;21.47;;
20101;SDS011;10210;52.284;9.892;2024-03-08T08:03:45;38.47;;;20.97;;
20101;SDS011;10210;52.284;9.892;2024-03-08T08:06:11;38.07;;;21.87;;
20101;SDS011;10210;52.284;9.892;2024-03-08T08:08:41;38.07;;;21.23;;
20101;SDS011;10210;52.284;9.892;2024-03-08T08:11:08;37.53;;;23.00;;
20101;SDS011;10210;52.284;9.892;2024-03-08T08:13:34;38.17;;;22.20;;
20101;SDS011;10210;52.284;9.892;2024-03-08T08:16:01;38.90;;;22.60;;
20101;SDS011;10210;52.284;9.892;2024-03-08T08:18:28;38.17;;;22.70;;
20101;SDS011;10210;52.284;9.892;2024-03-08T08:20:55;37.17;;;22.43;;
20101;SDS011;10210;52.284;9.892;2024-03-08T08:23:21;36.57;;;21.93;;
20101;SDS011;10210;52.284;9.892;2024-03-08T08:25:47;35.50;;;22.10;;
20101;SDS011;10210;52.284;9.892;2024-03-08T08:28:15;36.50;;;22.67;;
20101;SDS011;10210;52.284;9.892;2024-03-08T08:30:44;37.70;;;22.80;;
20101;SDS011;10210;52.284;9.892;2024-03-08T08:33:10;35.53;;;21.93;;
20101;SDS011;10210;52.284;9.892;2024-03-08T08:35:36;37.87;;;22.73;;
20101;SDS011;10210;52.284;9.892;2024-03-08T08:38:05;37.50;;;22.60;;
20101;SDS011;10210;52.284;9.892;2024-03-08T08:40:32;37.90;;;22.67;;
20101;SDS011;10210;52.284;9.892;2024-03-08T08:42:59;36.90;;;22.67;;
20101;SDS011;10210;52.284;9.892;2024-03-08T08:45:24;36.70;;;23.47;;
20101;SDS011;10210;52.284;9.892;2024-03-08T08:47:51;35.93;;;22.97;;
20101;SDS011;10210;52.284;9.892;2024-03-08T08:50:17;36.67;;;23.17;;
20101;SDS011;10210;52.284;9.892;2024-03-08T08:52:48;37.73;;;23.77;;
20101;SDS011;10210;52.284;9.892;2024-03-08T08:55:14;35.67;;;23.97;;
20101;SDS011;10210;52.284;9.892;2024-03-08T08:57:40;36.00;;;23.47;;
20101;SDS011;10210;52.284;9.892;2024-03-08T09:00:07;35.70;;;22.60;;
20101;SDS011;10210;52.284;9.892;2024-03-08T09:02:37;35.60;;;22.90;;
20101;SDS011;10210;52.284;9.892;2024-03-08T09:05:03;37.50;;;23.80;;
20101;SDS011;10210;52.284;9.892;2024-03-08T09:07:30;34.70;;;22.13;;
20101;SDS011;10210;52.284;9.892;2024-03-08T09:09:57;34.00;;;22.57;;
20101;SDS011;10210;52.284;9.892;2024-03-08T09:12:23;37.47;;;23.83;;
20101;SDS011;10210;52.284;9.892;2024-03-08T09:14:49;37.97;;;23.10;;
20101;SDS011;10210;52.284;9.892;2024-03-08T09:17:15;37.70;;;24.10;;
20101;SDS011;10210;52.284;9.892;2024-03-08T09:19:46;37.37;;;23.47;;
20101;SDS011;10210;52.284;9.892;2024-03-08T09:22:15;37.10;;;23.93;;
20101;SDS011;10210;52.284;9.892;2024-03-08T09:24:41;36.27;;;23.40;;
20101;SDS011;10210;52.284;9.892;2024-03-08T09:27:08;35.87;;;24.13;;
20101;SDS011;10210;52.284;9.892;2024-03-08T09:29:34;35.13;;;22.37;;
20101;SDS011;10210;52.284;9.892;2024-03-08T09:32:01;37.60;;;28.23;;
20101;SDS011;10210;52.284;9.892;2024-03-08T09:34:27;37.03;;;24.60;;
20101;SDS011;10210;52.284;9.892;2024-03-08T09:36:53;36.50;;;24.13;;
20101;SDS011;10210;52.284;9.892;2024-03-08T09:39:20;37.80;;;23.27;;
20101;SDS011;10210;52.284;9.892;2024-03-08T09:41:48;36.87;;;24.40;;
20101;SDS011;10210;52.284;9.892;2024-03-08T09:44:15;36.47;;;23.93;;
20101;SDS011;10210;52.284;9.892;2024-03-08T09:46:41;35.87;;;23.87;;
20101;SDS011;10210;52.284;9.892;2024-03-08T09:49:07;35.07;;;22.67;;
20101;SDS011;10210;52.284;9.892;2024-03-08T09:51:34;34.00;;;22.57;;
20101;SDS011;10210;52.284;9.892;2024-03-08T09:54:01;37.10;;;24.40;;
20101;SDS011;10210;52.284;9.892;2024-03-08T09:56:29;35.13;;;24.10;;
20101;SDS011;10210;52.284;9.892;2024-03-08T09:59:01;35.30;;;22.77;;
20101;SDS011;10210;52.284;9.892;2024-03-08T10:01:59;35.60;;;22.43;;
20101;SDS011;10210;52.284;9.892;2024-03-08T10:04:28;36.67;;;23.13;;
20101;SDS011;10210;52.284;9.892;2024-03-08T10:06:57;39.10;;;24.57;;
20101;SDS011;10210;52.284;9.892;2024-03-08T10:09:27;36.37;;;23.17;;
20101;SDS011;10210;52.284;9.892;2024-03-08T10:11:59;36.40;;;23.33;;
20101;SDS011;10210;52.284;9.892;2024-03-08T10:14:27;34.60;;;23.30;;
20101;SDS011;10210;52.284;9.892;2024-03-08T10:16:53;36.27;;;23.03;;
20101;SDS011;10210;52.284;9.892;2024-03-08T10:19:20;34.20;;;22.47;;
20101;SDS011;10210;52.284;9.892;2024-03-08T10:21:47;36.37;;;23.00;;
20101;SDS011;10210;52.284;9.892;2024-03-08T10:24:21;37.43;;;24.47;;
20101;SDS011;10210;52.284;9.892;2024-03-08T10:26:52;36.40;;;23.80;;
20101;SDS011;10210;52.284;9.892;2024-03-08T10:29:33;42.53;;;25.23;;
20101;SDS011;10210;52.284;9.892;2024-03-08T10:31:59;37.00;;;23.57;;
20101;SDS011;10210;52.284;9.892;2024-03-08T10:34:27;37.33;;;24.50;;
20101;SDS011;10210;52.284;9.892;2024-03-08T10:36:54;39.50;;;24.50;;
20101;SDS011;10210;52.284;9.892;2024-03-08T10:39:29;38.10;;;24.27;;
20101;SDS011;10210;52.284;9.892;2024-03-08T10:42:02;39.60;;;24.77;;
20101;SDS011;10210;52.284;9.892;2024-03-08T10:47:09;36.43;;;24.50;;
20101;SDS011;10210;52.284;9.892;2024-03-08T10:49:49;41.17;;;26.07;;
20101;SDS011;10210;52.284;9.892;2024-03-08T10:52:21;37.50;;;23.13;;
20101;SDS011;10210;52.284;9.892;2024-03-08T10:54:48;37.57;;;24.40;;
20101;SDS011;10210;52.284;9.892;2024-03-08T10:57:18;38.63;;;25.63;;
20101;SDS011;10210;52.284;9.892;2024-03-08T10:59:45;41.13;;;25.27;;
20101;SDS011;10210;52.284;9.892;2024-03-08T11:02:16;37.90;;;25.43;;
20101;SDS011;10210;52.284;9.892;2024-03-08T11:04:49;39.10;;;24.50;;
20101;SDS011;10210;52.284;9.892;2024-03-08T11:07:16;37.90;;;24.03;;
20101;SDS011;10210;52.284;9.892;2024-03-08T11:09:45;37.83;;;23.27;;
20101;SDS011;10210;52.284;9.892;2024-03-08T11:12:28;36.17;;;22.67;;
20101;SDS011;10210;52.284;9.892;2024-03-08T11:15:13;37.80;;;23.70;;
20101;SDS011;10210;52.284;9.892;2024-03-08T11:17:44;35.37;;;22.40;;
20101;SDS011;10210;52.284;9.892;2024-03-08T11:20:13;37.47;;;22.63;;
20101;SDS011;10210;52.284;9.892;2024-03-08T11:22:52;35.93;;;22.53;;
20101;SDS011;10210;52.284;9.892;2024-03-08T11:25:36;35.27;;;22.00;;
20101;SDS011;10210;52.284;9.892;2024-03-08T11:30:44;36.77;;;22.53;;
20101;SDS011;10210;52.284;9.892;2024-03-08T11:33:31;37.63;;;22.67;;
20101;SDS011;10210;52.284;9.892;2024-03-08T11:38:49;37.37;;;22.10;;
20101;SDS011;10210;52.284;9.892;2024-03-08T11:41:18;36.43;;;22.57;;
20101;SDS011;10210;52.284;9.892;2024-03-08T11:43:46;35.33;;;23.43;;
20101;SDS011;10210;52.284;9.892;2024-03-08T11:46:16;36.93;;;22.97;;
20101;SDS011;10210;52.284;9.892;2024-03-08T11:48:43;35.63;;;22.27;;
20101;SDS011;10210;52.284;9.892;2024-03-08T11:51:12;36.30;;;22.07;;
20101;SDS011;10210;52.284;9.892;2024-03-08T11:53:41;37.60;;;22.83;;
20101;SDS011;10210;52.284;9.892;2024-03-08T11:56:07;34.43;;;21.97;;
20101;SDS011;10210;52.284;9.892;2024-03-08T11:58:38;34.47;;;20.67;;
20101;SDS011;10210;52.284;9.892;2024-03-08T12:01:08;34.63;;;21.37;;
20101;SDS011;10210;52.284;9.892;2024-03-08T12:03:42;34.23;;;22.63;;
20101;SDS011;10210;52.284;9.892;2024-03-08T12:06:08;33.70;;;20.63;;
20101;SDS011;10210;52.284;9.892;2024-03-08T12:08:35;34.87;;;22.20;;
20101;SDS011;10210;52.284;9.892;2024-03-08T12:11:07;36.17;;;22.20;;
20101;SDS011;10210;52.284;9.892;2024-03-08T12:13:36;34.37;;;21.30;;
20101;SDS011;10210;52.284;9.892;2024-03-08T12:16:02;34.60;;;21.87;;
20101;SDS011;10210;52.284;9.892;2024-03-08T12:18:38;35.70;;;21.90;;
20101;SDS011;10210;52.284;9.892;2024-03-08T12:21:12;34.57;;;22.20;;
20101;SDS011;10210;52.284;9.892;2024-03-08T12:23:42;34.60;;;22.43;;
20101;SDS011;10210;52.284;9.892;2024-03-08T12:26:23;34.40;;;22.20;;
20101;SDS011;10210;52.284;9.892;2024-03-08T12:28:52;35.23;;;22.50;;
20101;SDS011;10210;52.284;9.892;2024-03-08T12:31:18;32.80;;;21.10;;
20101;SDS011;10210;52.284;9.892;2024-03-08T12:33:52;32.47;;;19.57;;
20101;SDS011;10210;52.284;9.892;2024-03-08T12:36:21;35.57;;;21.13;;
20101;SDS011;10210;52.284;9.892;2024-03-08T12:38:48;32.73;;;20.63;;
20101;SDS011;10210;52.284;9.892;2024-03-08T12:41:17;34.83;;;21.07;;
20101;SDS011;10210;52.284;9.892;2024-03-08T12:43:45;33.47;;;21.10;;
20101;SDS011;10210;52.284;9.892;2024-03-08T12:46:20;31.57;;;20.07;;
20101;SDS011;10210;52.284;9.892;2024-03-08T12:48:48;33.70;;;20.40;;
20101;SDS011;10210;52.284;9.892;2024-03-08T12:51:15;32.40;;;21.03;;
20101;SDS011;10210;52.284;9.892;2024-03-08T12:53:43;35.20;;;21.90;;
20101;SDS011;10210;52.284;9.892;2024-03-08T12:56:10;35.27;;;22.50;;
20101;SDS011;10210;52.284;9.892;2024-03-08T12:58:53;34.13;;;20.73;;
20101;SDS011;10210;52.284;9.892;2024-03-08T13:01:19;31.30;;;19.83;;
20101;SDS011;10210;52.284;9.892;2024-03-08T13:03:46;32.13;;;20.50;;
20101;SDS011;10210;52.284;9.892;2024-03-08T13:06:11;33.30;;;20.93;;
20101;SDS011;10210;52.284;9.892;2024-03-08T13:08:37;30.07;;;19.57;;
20101;SDS011;10210;52.284;9.892;2024-03-08T13:11:06;31.43;;;19.70;;
20101;SDS011;10210;52.284;9.892;2024-03-08T13:13:33;28.90;;;18.20;;
20101;SDS011;10210;52.284;9.892;2024-03-08T13:16:02;31.17;;;20.00;;
20101;SDS011;10210;52.284;9.892;2024-03-08T13:18:32;33.73;;;21.27;;
20101;SDS011;10210;52.284;9.892;2024-03-08T13:20:59;34.30;;;21.30;;
20101;SDS011;10210;52.284;9.892;2024-03-08T13:23:30;33.57;;;21.50;;
20101;SDS011;10210;52.284;9.892;2024-03-08T13:25:57;31.37;;;19.70;;
20101;SDS011;10210;52.284;9.892;2024-03-08T13:28:23;33.13;;;19.17;;
20101;SDS011;10210;52.284;9.892;2024-03-08T13:30:54;33.30;;;21.43;;
20101;SDS011;10210;52.284;9.892;2024-03-08T13:33:22;32.60;;;20.10;;
20101;SDS011;10210;52.284;9.892;2024-03-08T13:35:49;31.37;;;18.53;;
20101;SDS011;10210;52.284;9.892;2024-03-08T13:38:16;33.37;;;19.37;;
20101;SDS011;10210;52.284;9.892;2024-03-08T13:40:45;29.50;;;17.87;;
20101;SDS011;10210;52.284;9.892;2024-03-08T13:43:17;31.17;;;19.10;;
20101;SDS011;10210;52.284;9.892;2024-03-08T13:45:43;28.77;;;18.17;;
20101;SDS011;10210;52.284;9.892;2024-03-08T13:48:09;32.03;;;18.53;;
20101;SDS011;10210;52.284;9.892;2024-03-08T13:50:38;30.23;;;19.17;;
20101;SDS011;10210;52.284;9.892;2024-03-08T13:53:04;30.33;;;18.73;;
20101;SDS011;10210;52.284;9.892;2024-03-08T13:55:31;29.20;;;17.97;;
20101;SDS011;10210;52.284;9.892;2024-03-08T13:57:58;30.87;;;18.80;;
20101;SDS011;10210;52.284;9.892;2024-03-08T14:00:25;30.63;;;18.53;;
20101;SDS011;10210;52.284;9.892;2024-03-08T14:02:53;28.63;;;18.33;;
20101;SDS011;10210;52.284;9.892;2024-03-08T14:05:21;30.97;;;19.07;;
20101;SDS011;10210;52.284;9.892;2024-03-08T14:07:48;30.87;;;19.70;;
20101;SDS011;10210;52.284;9.892;2024-03-08T14:10:14;29.80;;;19.27;;
20101;SDS011;10210;52.284;9.892;2024-03-08T14:12:43;28.23;;;18.27;;
20101;SDS011;10210;52.284;9.892;2024-03-08T14:15:09;31.13;;;19.47;;
20101;SDS011;10210;52.284;9.892;2024-03-08T14:17:36;31.10;;;19.17;;
20101;SDS011;10210;52.284;9.892;2024-03-08T14:20:02;30.30;;;18.53;;
20101;SDS011;10210;52.284;9.892;2024-03-08T14:22:29;30.23;;;18.07;;
20101;SDS011;10210;52.284;9.892;2024-03-08T14:24:56;30.40;;;18.43;;
20101;SDS011;10210;52.284;9.892;2024-03-08T14:27:22;30.47;;;18.33;;
20101;SDS011;10210;52.284;9.892;2024-03-08T14:29:49;29.33;;;17.90;;
20101;SDS011;10210;52.284;9.892;2024-03-08T14:32:14;28.73;;;17.30;;
20101;SDS011;10210;52.284;9.892;2024-03-08T14:34:41;28.27;;;17.43;;